createdAt,value
2018-12-23T00:02:24.622Z,94.68
2018-12-23T00:04:53.097Z,95.03
2018-12-23T00:07:21.614Z,95.72
2018-12-23T00:09:50.141Z,96.09
2018-12-23T00:12:18.863Z,96.40
2018-12-23T00:14:47.336Z,95.33
2018-12-23T00:17:15.830Z,95.48
2018-12-23T00:19:44.454Z,96.06
2018-12-23T00:22:12.936Z,96.75
2018-12-23T00:24:41.499Z,96.04
2018-12-23T00:27:10.010Z,96.90
2018-12-23T00:29:39.136Z,96.68
2018-12-23T00:32:07.841Z,96.56
2018-12-23T00:34:36.349Z,95.72
2018-12-23T00:37:04.930Z,96.31
2018-12-23T00:39:33.357Z,96.72
2018-12-23T00:42:01.897Z,95.79
2018-12-23T00:44:30.427Z,95.89
2018-12-23T00:47:00.155Z,95.50
2018-12-23T00:49:28.711Z,95.03
2018-12-23T00:51:57.311Z,95.09
2018-12-23T00:54:26.784Z,95.27
2018-12-23T00:56:55.219Z,96.04
2018-12-23T00:59:23.738Z,96.55
2018-12-23T01:01:52.235Z,96.72
2018-12-23T01:04:20.786Z,96.92
2018-12-23T01:06:49.224Z,97.48
2018-12-23T01:09:17.782Z,97.76
2018-12-23T01:11:46.367Z,98.42
2018-12-23T01:14:14.949Z,98.20
2018-12-23T01:16:43.461Z,98.66
2018-12-23T01:19:12.366Z,98.35
2018-12-23T01:21:41.256Z,97.63
2018-12-23T01:24:09.693Z,97.62
2018-12-23T01:26:38.161Z,96.86
2018-12-23T01:29:06.636Z,95.56
2018-12-23T01:31:35.092Z,95.97
2018-12-23T01:34:05.388Z,96.52
2018-12-23T01:36:34.167Z,96.85
2018-12-23T01:39:02.786Z,97.25
2018-12-23T01:41:32.368Z,97.36
2018-12-23T01:44:00.981Z,97.67
2018-12-23T01:46:29.485Z,98.09
2018-12-23T01:48:58.566Z,98.10
2018-12-23T01:51:27.043Z,97.99
2018-12-23T01:53:55.545Z,98.10
2018-12-23T01:56:24.119Z,97.12
2018-12-23T01:58:52.566Z,96.71
2018-12-23T02:01:22.033Z,97.21
2018-12-23T02:03:50.582Z,97.16
2018-12-23T02:06:19.653Z,97.48
2018-12-23T02:08:48.149Z,97.03
2018-12-23T02:11:16.592Z,97.72
2018-12-23T02:13:45.133Z,97.83
2018-12-23T02:16:14.366Z,98.00
2018-12-23T02:18:43.637Z,98.38
2018-12-23T02:21:12.171Z,98.23
2018-12-23T02:23:40.906Z,97.98
2018-12-23T02:26:09.573Z,98.29
2018-12-23T02:28:40.688Z,97.88
2018-12-23T02:31:09.162Z,97.40
2018-12-23T02:33:37.919Z,96.61
2018-12-23T02:36:06.339Z,97.03
2018-12-23T02:38:35.534Z,96.38
2018-12-23T02:41:04.032Z,96.71
2018-12-23T02:43:32.507Z,96.55
2018-12-23T02:46:01.111Z,96.96
2018-12-23T02:48:29.594Z,96.61
2018-12-23T02:50:58.781Z,96.92
2018-12-23T02:53:27.257Z,97.12
2018-12-23T02:55:55.806Z,97.14
2018-12-23T02:58:24.253Z,98.16
2018-12-23T03:00:52.741Z,98.10
2018-12-23T03:03:21.348Z,97.95
2018-12-23T03:05:49.893Z,98.20
2018-12-23T03:08:19.141Z,98.84
2018-12-23T03:10:47.688Z,98.84
2018-12-23T03:13:16.232Z,98.89
2018-12-23T03:15:44.774Z,98.28
2018-12-23T03:18:13.196Z,98.72
2018-12-23T03:20:41.777Z,99.34
2018-12-23T03:23:10.245Z,98.82
2018-12-23T03:25:38.714Z,98.99
2018-12-23T03:28:07.733Z,98.38
2018-12-23T03:30:36.275Z,99.19
2018-12-23T03:33:04.812Z,99.01
2018-12-23T03:35:33.286Z,98.60
2018-12-23T03:38:02.572Z,99.56
2018-12-23T03:40:31.184Z,99.87
2018-12-23T03:42:59.652Z,99.78
2018-12-23T03:45:28.105Z,100.00
2018-12-23T03:47:56.806Z,99.69
2018-12-23T03:50:25.293Z,99.27
2018-12-23T03:52:53.898Z,98.70
2018-12-23T03:55:22.627Z,99.38
2018-12-23T03:57:51.114Z,99.32
2018-12-23T04:00:19.707Z,98.60
2018-12-23T04:02:48.298Z,98.50
2018-12-23T04:05:16.814Z,98.68
2018-12-23T04:07:45.248Z,99.23
2018-12-23T04:10:13.826Z,98.89
2018-12-23T04:12:42.264Z,98.92
2018-12-23T04:15:11.003Z,98.95
2018-12-23T04:17:39.654Z,98.00
2018-12-23T04:20:08.138Z,98.13
2018-12-23T04:22:36.643Z,98.13
2018-12-23T04:25:05.510Z,98.24
2018-12-23T04:27:33.971Z,98.30
2018-12-23T04:30:02.937Z,98.13
2018-12-23T04:32:31.520Z,99.07
2018-12-23T04:35:00.050Z,98.22
2018-12-23T04:37:29.368Z,98.87
2018-12-23T04:39:57.834Z,98.88
2018-12-23T04:42:26.381Z,98.42
2018-12-23T04:44:54.999Z,98.49
2018-12-23T04:47:23.582Z,98.62
2018-12-23T04:49:53.085Z,97.91
2018-12-23T04:52:21.558Z,98.24
2018-12-23T04:54:50.133Z,98.04
2018-12-23T04:57:19.270Z,97.83
2018-12-23T04:59:47.720Z,98.36
2018-12-23T05:02:16.885Z,98.54
2018-12-23T05:04:45.633Z,97.72
2018-12-23T05:07:15.236Z,98.02
2018-12-23T05:09:45.264Z,98.55
2018-12-23T05:12:13.833Z,99.24
2018-12-23T05:14:44.677Z,98.72
2018-12-23T05:17:12.861Z,99.03
2018-12-23T05:19:41.521Z,98.33
2018-12-23T05:22:10.371Z,97.69
2018-12-23T05:24:38.889Z,98.11
2018-12-23T05:27:07.442Z,97.70
2018-12-23T05:29:36.392Z,97.15
2018-12-23T05:32:05.470Z,96.76
2018-12-23T05:34:34.562Z,97.41
2018-12-23T05:37:03.133Z,98.07
2018-12-23T05:39:31.673Z,97.62
2018-12-23T05:42:00.775Z,97.93
2018-12-23T05:44:29.247Z,97.66
2018-12-23T05:47:00.021Z,98.03
2018-12-23T05:49:28.464Z,98.49
2018-12-23T05:51:56.953Z,98.65
2018-12-23T05:54:25.385Z,99.10
2018-12-23T05:56:54.014Z,99.70
2018-12-23T05:59:22.490Z,99.94
2018-12-23T06:01:51.012Z,99.69
2018-12-23T06:04:19.542Z,99.00
2018-12-23T06:06:48.030Z,99.65
2018-12-23T06:09:17.846Z,99.87
2018-12-23T06:11:47.015Z,100.00
2018-12-23T06:14:15.640Z,100.00
2018-12-23T06:16:44.218Z,100.00
2018-12-23T06:19:12.685Z,100.00
2018-12-23T06:21:41.205Z,100.00
2018-12-23T06:24:09.815Z,100.00
2018-12-23T06:26:38.257Z,100.00
2018-12-23T06:29:06.819Z,100.00
2018-12-23T06:31:35.389Z,99.99
2018-12-23T06:34:04.069Z,99.11
2018-12-23T06:36:33.246Z,99.38
2018-12-23T06:39:02.057Z,99.14
2018-12-23T06:41:30.661Z,99.04
2018-12-23T06:44:00.121Z,98.33
2018-12-23T06:46:28.791Z,98.73
2018-12-23T06:48:57.594Z,98.29
2018-12-23T06:51:26.224Z,98.58
2018-12-23T06:53:54.710Z,98.37
2018-12-23T06:56:23.206Z,98.42
2018-12-23T06:58:51.734Z,97.52
2018-12-23T07:01:21.125Z,97.68
2018-12-23T07:03:50.160Z,97.62
2018-12-23T07:06:18.702Z,97.64
2018-12-23T07:08:47.187Z,97.69
2018-12-23T07:11:15.711Z,96.99
2018-12-23T07:13:44.167Z,97.66
2018-12-23T07:16:12.787Z,98.35
2018-12-23T07:18:41.413Z,97.66
2018-12-23T07:21:09.906Z,98.18
2018-12-23T07:23:38.411Z,98.46
2018-12-23T07:26:06.974Z,98.05
2018-12-23T07:28:35.510Z,98.56
2018-12-23T07:31:04.061Z,98.14
2018-12-23T07:33:32.630Z,97.29
2018-12-23T07:36:01.327Z,97.50
2018-12-23T07:38:30.037Z,98.28
2018-12-23T07:40:58.695Z,97.92
2018-12-23T07:43:27.204Z,97.08
2018-12-23T07:45:55.710Z,97.05
2018-12-23T07:48:24.432Z,97.72
2018-12-23T07:50:53.845Z,98.51
2018-12-23T07:53:22.494Z,98.80
2018-12-23T07:55:51.893Z,98.11
2018-12-23T07:58:20.775Z,98.44
2018-12-23T08:00:49.766Z,98.47
2018-12-23T08:03:18.301Z,97.45
2018-12-23T08:05:46.777Z,97.75
2018-12-23T08:08:15.329Z,97.04
2018-12-23T08:10:44.077Z,97.78
2018-12-23T08:13:12.662Z,98.69
2018-12-23T08:15:41.327Z,98.34
2018-12-23T08:18:10.340Z,98.56
2018-12-23T08:20:38.793Z,98.63
2018-12-23T08:23:07.318Z,98.30
2018-12-23T08:25:36.010Z,97.76
2018-12-23T08:28:04.727Z,97.53
2018-12-23T08:30:33.314Z,97.99
2018-12-23T08:33:02.619Z,98.18
2018-12-23T08:35:31.117Z,98.24
2018-12-23T08:37:59.602Z,97.62
2018-12-23T08:40:28.161Z,98.44
2018-12-23T08:42:56.723Z,97.97
2018-12-23T08:45:25.164Z,98.41
2018-12-23T08:47:53.693Z,98.34
2018-12-23T08:50:22.497Z,98.08
2018-12-23T08:52:50.932Z,98.22
2018-12-23T08:55:19.502Z,98.44
2018-12-23T08:57:48.070Z,97.05
2018-12-23T09:00:16.664Z,97.46
2018-12-23T09:02:45.132Z,97.38
2018-12-23T09:05:14.379Z,97.00
2018-12-23T09:07:42.856Z,96.90
2018-12-23T09:10:11.473Z,96.50
2018-12-23T09:12:40.010Z,96.77
2018-12-23T09:15:08.534Z,96.85
2018-12-23T09:17:37.040Z,97.31
2018-12-23T09:20:05.705Z,95.83
2018-12-23T09:22:34.274Z,96.14
2018-12-23T09:25:02.929Z,96.03
2018-12-23T09:27:31.510Z,95.48
2018-12-23T09:30:00.333Z,95.73
2018-12-23T09:32:28.830Z,95.28
2018-12-23T09:34:58.678Z,95.47
2018-12-23T09:37:28.670Z,95.53
2018-12-23T09:39:58.308Z,93.89
2018-12-23T09:42:30.207Z,95.10
2018-12-23T09:45:00.575Z,96.12
2018-12-23T09:47:31.839Z,96.01
2018-12-23T09:50:00.920Z,95.77
2018-12-23T09:52:29.512Z,96.77
2018-12-23T09:54:58.152Z,95.76
2018-12-23T09:57:26.701Z,94.84
2018-12-23T09:59:55.454Z,94.84
2018-12-23T10:02:25.415Z,95.12
2018-12-23T10:04:53.976Z,93.89
2018-12-23T10:07:23.152Z,94.69
2018-12-23T10:09:52.036Z,94.17
2018-12-23T10:12:21.600Z,94.29
2018-12-23T10:14:50.305Z,94.06
2018-12-23T10:17:19.800Z,93.37
2018-12-23T10:19:48.462Z,93.92
2018-12-23T10:22:17.712Z,94.31
2018-12-23T10:24:48.729Z,94.26
2018-12-23T10:27:17.552Z,93.61
2018-12-23T10:29:46.237Z,94.84
2018-12-23T10:32:15.616Z,93.99
2018-12-23T10:34:44.178Z,94.49
2018-12-23T10:37:12.903Z,93.63
2018-12-23T10:39:42.213Z,95.15
2018-12-23T10:42:10.974Z,94.94
2018-12-23T10:44:40.430Z,96.35
2018-12-23T10:47:08.960Z,95.93
2018-12-23T10:49:37.526Z,95.87
2018-12-23T10:52:06.396Z,95.29
2018-12-23T10:54:36.274Z,96.94
2018-12-23T10:57:04.972Z,97.65
2018-12-23T10:59:34.221Z,96.83
2018-12-23T11:02:02.806Z,97.71
2018-12-23T11:04:31.385Z,96.30
2018-12-23T11:07:00.157Z,96.97
2018-12-23T11:09:29.027Z,97.00
2018-12-23T11:11:58.438Z,97.60
2018-12-23T11:14:28.410Z,97.07
2018-12-23T11:16:57.579Z,97.17
2018-12-23T11:19:26.335Z,97.59
2018-12-23T11:21:54.821Z,99.11
2018-12-23T11:24:23.331Z,98.93
2018-12-23T11:26:53.833Z,98.41
2018-12-23T11:29:23.488Z,97.96
2018-12-23T11:31:51.973Z,98.94
2018-12-23T11:34:20.588Z,98.77
2018-12-23T11:36:49.016Z,98.13
2018-12-23T11:39:17.549Z,98.32
2018-12-23T11:41:46.013Z,97.54
2018-12-23T11:44:16.041Z,97.23
2018-12-23T11:46:44.577Z,96.99
2018-12-23T11:49:46.367Z,97.02
2018-12-23T11:52:15.945Z,97.09
2018-12-23T11:54:45.448Z,96.93
2018-12-23T11:57:14.910Z,95.70
2018-12-23T11:59:44.420Z,96.78
2018-12-23T12:02:15.321Z,97.38
2018-12-23T12:04:45.095Z,98.17
2018-12-23T12:07:14.718Z,96.96
2018-12-23T12:09:44.385Z,96.71
2018-12-23T12:12:13.872Z,97.28
2018-12-23T12:14:43.389Z,97.22
2018-12-23T12:17:12.869Z,97.65
2018-12-23T12:19:43.601Z,97.32
2018-12-23T12:22:13.060Z,96.80
2018-12-23T12:24:42.654Z,96.61
2018-12-23T12:27:12.131Z,96.52
2018-12-23T12:29:41.613Z,96.20
2018-12-23T12:32:11.089Z,96.84
2018-12-23T12:34:40.626Z,96.45
2018-12-23T12:37:10.093Z,96.67
2018-12-23T12:39:39.634Z,96.14
2018-12-23T12:42:09.090Z,96.59
2018-12-23T12:44:38.605Z,96.69
2018-12-23T12:47:08.042Z,96.34
2018-12-23T12:49:37.548Z,96.33
2018-12-23T12:52:07.038Z,96.52
2018-12-23T12:54:36.552Z,96.68
2018-12-23T12:57:06.126Z,96.01
2018-12-23T12:59:35.594Z,96.19
2018-12-23T13:02:05.147Z,96.21
2018-12-23T13:04:34.712Z,96.16
2018-12-23T13:07:04.407Z,95.65
2018-12-23T13:09:33.955Z,95.91
2018-12-23T13:12:03.773Z,95.94
2018-12-23T13:14:33.313Z,96.43
2018-12-23T13:17:03.476Z,96.37
2018-12-23T13:19:34.265Z,96.22
2018-12-23T13:22:06.045Z,95.94
2018-12-23T13:24:36.234Z,97.50
2018-12-23T13:27:05.762Z,97.21
2018-12-23T13:29:35.522Z,97.97
2018-12-23T13:32:09.526Z,97.80
2018-12-23T13:34:41.007Z,97.01
2018-12-23T13:37:16.096Z,97.57
2018-12-23T13:39:47.624Z,98.12
2018-12-23T13:42:50.526Z,97.88
2018-12-23T13:46:03.105Z,97.93
2018-12-23T13:49:18.374Z,97.92
2018-12-23T13:52:16.817Z,97.20
2018-12-23T13:55:22.915Z,98.46
2018-12-23T13:58:07.920Z,97.99
2018-12-23T14:01:36.766Z,97.97
2018-12-23T14:04:39.441Z,98.11
2018-12-23T14:07:51.495Z,97.83
2018-12-23T14:10:46.782Z,98.57
2018-12-23T14:13:16.295Z,99.32
2018-12-23T14:15:48.410Z,99.44
2018-12-23T14:18:17.898Z,99.84
2018-12-23T14:20:51.132Z,99.56
2018-12-23T14:23:22.399Z,99.32
2018-12-23T14:25:51.818Z,99.24
2018-12-23T14:28:23.353Z,99.15
2018-12-23T14:30:52.785Z,98.88
2018-12-23T14:33:23.605Z,98.36
2018-12-23T14:35:53.171Z,98.76
2018-12-23T14:38:22.759Z,99.55
2018-12-23T14:40:52.333Z,99.95
2018-12-23T14:43:21.807Z,99.94
2018-12-23T14:45:51.259Z,99.62
2018-12-23T14:48:20.933Z,99.62
2018-12-23T14:50:50.454Z,100.00
2018-12-23T14:53:20.388Z,100.00
2018-12-23T14:55:49.899Z,100.00
2018-12-23T14:58:19.398Z,100.00
2018-12-23T15:00:48.899Z,100.00
2018-12-23T15:03:21.194Z,100.00
2018-12-23T15:05:50.664Z,100.00
2018-12-23T15:08:20.289Z,100.00
2018-12-23T15:10:49.772Z,100.00
2018-12-23T15:13:19.367Z,100.00
2018-12-23T15:15:49.022Z,100.00
2018-12-23T15:18:18.524Z,100.00
2018-12-23T15:20:48.138Z,100.00
2018-12-23T15:23:17.709Z,100.00
2018-12-23T15:25:49.050Z,100.00
2018-12-23T15:28:18.627Z,100.00
2018-12-23T15:30:48.117Z,100.00
2018-12-23T15:33:17.588Z,100.00
2018-12-23T15:35:48.514Z,100.00
2018-12-23T15:38:17.967Z,100.00
2018-12-23T15:40:47.473Z,100.00
2018-12-23T15:43:16.977Z,100.00
2018-12-23T15:45:46.480Z,100.00
2018-12-23T15:48:16.025Z,100.00
2018-12-23T15:50:45.528Z,100.00
2018-12-23T15:53:17.514Z,100.00
2018-12-23T15:55:47.060Z,100.00
2018-12-23T15:58:16.536Z,100.00
2018-12-23T16:00:46.057Z,100.00
2018-12-23T16:03:18.876Z,100.00
2018-12-23T16:05:48.446Z,100.00
2018-12-23T16:08:19.281Z,100.00
2018-12-23T16:10:48.793Z,100.00
2018-12-23T16:13:19.834Z,100.00
2018-12-23T16:15:51.631Z,100.00
2018-12-23T16:18:21.219Z,100.00
2018-12-23T16:20:50.728Z,100.00
2018-12-23T16:23:20.231Z,100.00
2018-12-23T16:25:51.390Z,100.00
2018-12-23T16:28:21.697Z,100.00
2018-12-23T16:30:51.255Z,100.00
2018-12-23T16:33:20.933Z,100.00
2018-12-23T16:35:50.451Z,100.00
2018-12-23T16:38:22.295Z,100.00
2018-12-23T16:40:52.265Z,100.00
2018-12-23T16:43:23.094Z,100.00
2018-12-23T16:45:52.646Z,100.00
2018-12-23T16:48:22.145Z,100.00
2018-12-23T16:50:51.650Z,100.00
2018-12-23T16:53:21.195Z,100.00
2018-12-23T16:55:50.751Z,100.00
2018-12-23T16:58:20.271Z,100.00
2018-12-23T17:00:49.717Z,100.00
2018-12-23T17:03:19.234Z,100.00
2018-12-23T17:05:48.744Z,100.00
2018-12-23T17:08:18.245Z,100.00
2018-12-23T17:10:47.810Z,100.00
2018-12-23T17:13:17.324Z,100.00
2018-12-23T17:15:46.833Z,100.00
2018-12-23T17:18:16.410Z,100.00
2018-12-23T17:20:45.904Z,100.00
2018-12-23T17:23:15.458Z,100.00
2018-12-23T17:25:44.931Z,100.00
2018-12-23T17:28:14.556Z,100.00
2018-12-23T17:30:44.011Z,100.00
2018-12-23T17:33:13.594Z,100.00
2018-12-23T17:35:43.064Z,100.00
2018-12-23T17:38:12.612Z,100.00
2018-12-23T17:40:42.896Z,100.00
2018-12-23T17:43:12.371Z,100.00
2018-12-23T17:45:44.295Z,100.00
2018-12-23T17:48:15.079Z,100.00
2018-12-23T17:50:44.559Z,100.00
2018-12-23T17:53:14.111Z,100.00
2018-12-23T17:55:43.786Z,100.00
2018-12-23T17:58:13.332Z,100.00
2018-12-23T18:00:44.987Z,100.00
2018-12-23T18:03:14.479Z,100.00
2018-12-23T18:05:43.898Z,100.00
2018-12-23T18:08:16.157Z,100.00
2018-12-23T18:10:45.785Z,100.00
2018-12-23T18:13:15.234Z,100.00
2018-12-23T18:15:44.716Z,100.00
2018-12-23T18:18:14.187Z,100.00
2018-12-23T18:20:43.680Z,100.00
2018-12-23T18:23:13.184Z,100.00
2018-12-23T18:25:43.680Z,100.00
2018-12-23T18:28:13.158Z,100.00
2018-12-23T18:30:44.003Z,100.00
2018-12-23T18:33:13.439Z,100.00
2018-12-23T18:35:42.950Z,100.00
2018-12-23T18:38:12.390Z,100.00
2018-12-23T18:40:41.897Z,100.00
2018-12-23T18:43:11.337Z,100.00
2018-12-23T18:45:43.035Z,100.00
2018-12-23T18:48:12.527Z,100.00
2018-12-23T18:50:44.451Z,100.00
2018-12-23T18:53:13.942Z,100.00
2018-12-23T18:55:43.493Z,100.00
2018-12-23T18:58:13.121Z,100.00
2018-12-23T19:00:45.745Z,100.00
2018-12-23T19:03:15.278Z,100.00
2018-12-23T19:05:44.749Z,100.00
2018-12-23T19:08:18.639Z,100.00
2018-12-23T19:11:19.261Z,100.00
2018-12-23T19:14:24.288Z,100.00
2018-12-23T19:17:46.745Z,100.00
2018-12-23T19:20:47.791Z,100.00
2018-12-23T19:23:43.663Z,100.00
2018-12-23T19:27:01.969Z,100.00
2018-12-23T19:30:09.722Z,100.00
2018-12-23T19:33:10.710Z,100.00
2018-12-23T19:36:14.664Z,100.00
2018-12-23T19:39:05.350Z,100.00
2018-12-23T19:42:28.538Z,100.00
2018-12-23T19:45:38.044Z,100.00
2018-12-23T19:48:45.032Z,100.00
2018-12-23T19:52:10.910Z,100.00
2018-12-23T19:54:58.157Z,100.00
2018-12-23T19:58:00.147Z,100.00
2018-12-23T20:01:08.648Z,100.00
2018-12-23T20:04:17.183Z,100.00
2018-12-23T20:07:36.589Z,100.00
2018-12-23T20:10:49.989Z,100.00
2018-12-23T20:14:18.694Z,100.00
2018-12-23T20:17:34.964Z,100.00
2018-12-23T20:20:26.306Z,100.00
2018-12-23T20:23:27.895Z,100.00
2018-12-23T20:26:48.948Z,100.00
2018-12-23T20:29:54.016Z,100.00
2018-12-23T20:32:37.432Z,100.00
2018-12-23T20:35:25.661Z,100.00
2018-12-23T20:38:38.946Z,100.00
2018-12-23T20:41:46.525Z,100.00
2018-12-23T20:45:01.374Z,99.76
2018-12-23T20:48:30.129Z,99.36
2018-12-23T20:51:43.053Z,99.61
2018-12-23T20:54:48.804Z,99.94
2018-12-23T21:01:36.750Z,99.86
2018-12-23T21:04:33.886Z,99.08
2018-12-23T21:07:49.719Z,98.67
2018-12-23T21:11:15.905Z,98.52
2018-12-23T21:14:15.121Z,98.59
2018-12-23T21:20:23.674Z,98.53
2018-12-23T21:23:06.357Z,98.67
2018-12-23T21:26:12.175Z,98.91
2018-12-23T21:29:28.715Z,99.55
2018-12-23T21:32:24.634Z,99.62
2018-12-23T21:35:31.819Z,100.00
2018-12-23T21:38:41.557Z,100.00
2018-12-23T21:41:55.014Z,100.00
2018-12-23T21:44:42.577Z,100.00
2018-12-23T21:47:46.342Z,100.00
2018-12-23T21:51:05.933Z,100.00
2018-12-23T21:53:59.480Z,100.00
2018-12-23T21:57:25.240Z,100.00
2018-12-23T22:00:35.146Z,100.00
2018-12-23T22:03:50.614Z,100.00
2018-12-23T22:06:42.162Z,100.00
2018-12-23T22:09:38.826Z,100.00
2018-12-23T22:12:31.709Z,100.00
2018-12-23T22:15:02.261Z,100.00
2018-12-23T22:17:31.695Z,100.00
2018-12-23T22:20:01.241Z,100.00
2018-12-23T22:22:30.772Z,100.00
2018-12-23T22:25:00.300Z,100.00
2018-12-23T22:27:29.773Z,100.00
2018-12-23T22:29:59.291Z,100.00
2018-12-23T22:32:28.811Z,100.00
2018-12-23T22:34:58.248Z,100.00
2018-12-23T22:37:27.775Z,100.00
2018-12-23T22:39:57.232Z,100.00
2018-12-23T22:42:27.965Z,100.00
2018-12-23T22:44:57.469Z,100.00
2018-12-23T22:47:27.006Z,100.00
2018-12-23T22:49:58.591Z,100.00
2018-12-23T22:52:28.070Z,100.00
2018-12-23T22:54:57.533Z,100.00
2018-12-23T22:57:27.300Z,100.00
2018-12-23T22:59:57.035Z,100.00
2018-12-23T23:02:27.058Z,100.00
2018-12-23T23:04:56.683Z,99.79
2018-12-23T23:07:26.213Z,99.71
2018-12-23T23:09:56.133Z,100.00
2018-12-23T23:12:29.565Z,99.84
2018-12-23T23:15:03.100Z,100.00
2018-12-23T23:17:32.854Z,99.92
2018-12-23T23:20:02.439Z,99.69
2018-12-23T23:22:32.033Z,99.64
2018-12-23T23:25:01.519Z,98.93
2018-12-23T23:27:31.058Z,99.41
2018-12-23T23:30:00.498Z,99.57
2018-12-23T23:32:32.282Z,99.01
2018-12-23T23:35:05.396Z,98.51
2018-12-23T23:37:34.973Z,98.04
2018-12-23T23:40:04.457Z,98.08
2018-12-23T23:42:34.015Z,97.81
2018-12-23T23:45:06.145Z,97.49
2018-12-23T23:47:35.699Z,98.05
2018-12-23T23:50:05.763Z,97.56
2018-12-23T23:52:35.217Z,96.97
2018-12-23T23:55:04.828Z,97.02
2018-12-23T23:57:34.301Z,97.14
